sensor_id;sensor_type;location;lat;lon;timestamp;temperature;humidity
46730;DHT22;32476;50.002;11.854;2024-02-04T00:01:29;5.10;99.90
46730;DHT22;32476;50.002;11.854;2024-02-04T00:03:56;5.20;99.90
46730;DHT22;32476;50.002;11.854;2024-02-04T00:06:22;5.20;99.90
46730;DHT22;32476;50.002;11.854;2024-02-04T00:08:48;5.20;99.90
46730;DHT22;32476;50.002;11.854;2024-02-04T00:11:16;5.20;99.90
46730;DHT22;32476;50.002;11.854;2024-02-04T00:13:42;5.20;99.90
46730;DHT22;32476;50.002;11.854;2024-02-04T00:16:08;5.20;99.90
46730;DHT22;32476;50.002;11.854;2024-02-04T00:18:36;5.30;99.90
46730;DHT22;32476;50.002;11.854;2024-02-04T00:21:02;5.30;99.90
46730;DHT22;32476;50.002;11.854;2024-02-04T00:23:28;5.30;99.90
46730;DHT22;32476;50.002;11.854;2024-02-04T00:25:55;5.30;99.90
46730;DHT22;32476;50.002;11.854;2024-02-04T00:28:21;5.30;99.90
46730;DHT22;32476;50.002;11.854;2024-02-04T00:30:47;5.30;99.90
46730;DHT22;32476;50.002;11.854;2024-02-04T00:33:17;5.30;99.90
46730;DHT22;32476;50.002;11.854;2024-02-04T00:35:42;5.30;99.90
46730;DHT22;32476;50.002;11.854;2024-02-04T00:38:08;5.30;99.90
46730;DHT22;32476;50.002;11.854;2024-02-04T00:40:36;5.30;99.90
46730;DHT22;32476;50.002;11.854;2024-02-04T00:43:02;5.30;99.90
46730;DHT22;32476;50.002;11.854;2024-02-04T00:45:28;5.30;99.90
46730;DHT22;32476;50.002;11.854;2024-02-04T00:47:55;5.30;99.90
46730;DHT22;32476;50.002;11.854;2024-02-04T00:50:21;5.30;99.90
46730;DHT22;32476;50.002;11.854;2024-02-04T00:52:47;5.30;99.90
46730;DHT22;32476;50.002;11.854;2024-02-04T00:55:14;5.30;99.90
46730;DHT22;32476;50.002;11.854;2024-02-04T00:57:40;5.30;99.90
46730;DHT22;32476;50.002;11.854;2024-02-04T01:00:07;5.30;99.90
46730;DHT22;32476;50.002;11.854;2024-02-04T01:02:35;5.30;99.90
46730;DHT22;32476;50.002;11.854;2024-02-04T01:05:00;5.30;99.90
46730;DHT22;32476;50.002;11.854;2024-02-04T01:07:27;5.30;99.90
46730;DHT22;32476;50.002;11.854;2024-02-04T01:09:54;5.30;99.90
46730;DHT22;32476;50.002;11.854;2024-02-04T01:12:20;5.30;99.90
46730;DHT22;32476;50.002;11.854;2024-02-04T01:14:46;5.30;99.90
46730;DHT22;32476;50.002;11.854;2024-02-04T01:17:13;5.30;99.90
46730;DHT22;32476;50.002;11.854;2024-02-04T01:19:39;5.30;99.90
46730;DHT22;32476;50.002;11.854;2024-02-04T01:22:05;5.30;99.90
46730;DHT22;32476;50.002;11.854;2024-02-04T01:24:33;5.40;99.90
46730;DHT22;32476;50.002;11.854;2024-02-04T01:26:59;5.40;99.90
46730;DHT22;32476;50.002;11.854;2024-02-04T01:29:25;5.30;99.90
46730;DHT22;32476;50.002;11.854;2024-02-04T01:31:52;5.30;99.90
46730;DHT22;32476;50.002;11.854;2024-02-04T01:34:18;5.30;99.90
46730;DHT22;32476;50.002;11.854;2024-02-04T01:36:44;5.30;99.90
46730;DHT22;32476;50.002;11.854;2024-02-04T01:39:11;5.30;99.90
46730;DHT22;32476;50.002;11.854;2024-02-04T01:41:37;5.30;99.90
46730;DHT22;32476;50.002;11.854;2024-02-04T01:44:03;5.30;99.90
46730;DHT22;32476;50.002;11.854;2024-02-04T01:46:31;5.40;99.90
46730;DHT22;32476;50.002;11.854;2024-02-04T01:48:57;5.30;99.90
46730;DHT22;32476;50.002;11.854;2024-02-04T01:51:23;5.40;99.90
46730;DHT22;32476;50.002;11.854;2024-02-04T01:53:51;5.30;99.90
46730;DHT22;32476;50.002;11.854;2024-02-04T01:56:17;5.30;99.90
46730;DHT22;32476;50.002;11.854;2024-02-04T01:58:43;5.30;99.90
46730;DHT22;32476;50.002;11.854;2024-02-04T02:01:11;5.30;99.90
46730;DHT22;32476;50.002;11.854;2024-02-04T02:03:38;5.30;99.90
46730;DHT22;32476;50.002;11.854;2024-02-04T02:06:05;5.30;99.90
46730;DHT22;32476;50.002;11.854;2024-02-04T02:08:33;5.30;99.90
46730;DHT22;32476;50.002;11.854;2024-02-04T02:11:25;5.30;99.90
46730;DHT22;32476;50.002;11.854;2024-02-04T02:14:00;5.30;99.90
46730;DHT22;32476;50.002;11.854;2024-02-04T02:16:31;5.30;99.90
46730;DHT22;32476;50.002;11.854;2024-02-04T02:19:26;5.20;99.90
46730;DHT22;32476;50.002;11.854;2024-02-04T02:22:26;5.30;99.90
46730;DHT22;32476;50.002;11.854;2024-02-04T02:24:56;5.20;99.90
46730;DHT22;32476;50.002;11.854;2024-02-04T02:27:23;5.20;99.90
46730;DHT22;32476;50.002;11.854;2024-02-04T02:29:48;5.30;99.90
46730;DHT22;32476;50.002;11.854;2024-02-04T02:32:16;5.20;99.90
46730;DHT22;32476;50.002;11.854;2024-02-04T02:34:43;5.20;99.90
46730;DHT22;32476;50.002;11.854;2024-02-04T02:37:39;5.20;99.90
46730;DHT22;32476;50.002;11.854;2024-02-04T02:40:34;5.20;99.90
46730;DHT22;32476;50.002;11.854;2024-02-04T02:43:04;5.20;99.90
46730;DHT22;32476;50.002;11.854;2024-02-04T02:45:32;5.20;99.90
46730;DHT22;32476;50.002;11.854;2024-02-04T02:48:00;5.20;99.90
46730;DHT22;32476;50.002;11.854;2024-02-04T02:50:26;5.20;99.90
46730;DHT22;32476;50.002;11.854;2024-02-04T02:52:54;5.20;99.90
46730;DHT22;32476;50.002;11.854;2024-02-04T02:55:20;5.20;99.90
46730;DHT22;32476;50.002;11.854;2024-02-04T02:57:46;5.20;99.90
46730;DHT22;32476;50.002;11.854;2024-02-04T03:00:14;5.20;99.90
46730;DHT22;32476;50.002;11.854;2024-02-04T03:02:40;5.20;99.90
46730;DHT22;32476;50.002;11.854;2024-02-04T03:05:06;5.20;99.90
46730;DHT22;32476;50.002;11.854;2024-02-04T03:07:33;5.20;99.90
46730;DHT22;32476;50.002;11.854;2024-02-04T03:09:59;5.20;99.90
46730;DHT22;32476;50.002;11.854;2024-02-04T03:12:25;5.20;99.90
46730;DHT22;32476;50.002;11.854;2024-02-04T03:14:53;5.20;99.90
46730;DHT22;32476;50.002;11.854;2024-02-04T03:17:19;5.20;99.90
46730;DHT22;32476;50.002;11.854;2024-02-04T03:19:49;5.20;99.90
46730;DHT22;32476;50.002;11.854;2024-02-04T03:22:18;5.20;99.90
46730;DHT22;32476;50.002;11.854;2024-02-04T03:24:45;5.20;99.90
46730;DHT22;32476;50.002;11.854;2024-02-04T03:27:12;5.20;99.90
46730;DHT22;32476;50.002;11.854;2024-02-04T03:29:39;5.20;99.90
46730;DHT22;32476;50.002;11.854;2024-02-04T03:32:05;5.20;99.90
46730;DHT22;32476;50.002;11.854;2024-02-04T03:34:31;5.20;99.90
46730;DHT22;32476;50.002;11.854;2024-02-04T03:36:58;5.20;99.90
46730;DHT22;32476;50.002;11.854;2024-02-04T03:39:25;5.20;99.90
46730;DHT22;32476;50.002;11.854;2024-02-04T03:41:51;5.20;99.90
46730;DHT22;32476;50.002;11.854;2024-02-04T03:44:19;5.20;99.90
46730;DHT22;32476;50.002;11.854;2024-02-04T03:46:48;5.20;99.90
46730;DHT22;32476;50.002;11.854;2024-02-04T03:49:14;5.20;99.90
46730;DHT22;32476;50.002;11.854;2024-02-04T03:51:42;5.20;99.90
46730;DHT22;32476;50.002;11.854;2024-02-04T03:54:08;5.20;99.90
46730;DHT22;32476;50.002;11.854;2024-02-04T03:56:34;5.20;99.90
46730;DHT22;32476;50.002;11.854;2024-02-04T03:59:01;5.20;99.90
46730;DHT22;32476;50.002;11.854;2024-02-04T04:01:27;5.20;99.90
46730;DHT22;32476;50.002;11.854;2024-02-04T04:03:53;5.10;99.90
46730;DHT22;32476;50.002;11.854;2024-02-04T04:06:20;5.20;99.90
46730;DHT22;32476;50.002;11.854;2024-02-04T04:08:46;5.10;99.90
46730;DHT22;32476;50.002;11.854;2024-02-04T04:11:12;5.10;99.90
46730;DHT22;32476;50.002;11.854;2024-02-04T04:13:39;5.10;99.90
46730;DHT22;32476;50.002;11.854;2024-02-04T04:16:06;5.10;99.90
46730;DHT22;32476;50.002;11.854;2024-02-04T04:18:32;5.10;99.90
46730;DHT22;32476;50.002;11.854;2024-02-04T04:20:59;5.10;99.90
46730;DHT22;32476;50.002;11.854;2024-02-04T04:23:25;5.10;99.90
46730;DHT22;32476;50.002;11.854;2024-02-04T04:25:51;5.10;99.90
46730;DHT22;32476;50.002;11.854;2024-02-04T04:28:19;5.10;99.90
46730;DHT22;32476;50.002;11.854;2024-02-04T04:30:45;5.10;99.90
46730;DHT22;32476;50.002;11.854;2024-02-04T04:33:10;5.00;99.90
46730;DHT22;32476;50.002;11.854;2024-02-04T04:35:39;5.10;99.90
46730;DHT22;32476;50.002;11.854;2024-02-04T04:38:05;5.00;99.90
46730;DHT22;32476;50.002;11.854;2024-02-04T04:40:31;5.00;99.90
46730;DHT22;32476;50.002;11.854;2024-02-04T04:42:59;5.10;99.90
46730;DHT22;32476;50.002;11.854;2024-02-04T04:45:25;5.00;99.90
46730;DHT22;32476;50.002;11.854;2024-02-04T04:47:51;5.00;99.90
46730;DHT22;32476;50.002;11.854;2024-02-04T04:50:18;5.00;99.90
46730;DHT22;32476;50.002;11.854;2024-02-04T04:52:44;5.00;99.90
46730;DHT22;32476;50.002;11.854;2024-02-04T04:55:11;5.00;99.90
46730;DHT22;32476;50.002;11.854;2024-02-04T04:57:39;5.00;99.90
46730;DHT22;32476;50.002;11.854;2024-02-04T05:00:05;5.10;99.90
46730;DHT22;32476;50.002;11.854;2024-02-04T05:02:33;5.00;99.90
46730;DHT22;32476;50.002;11.854;2024-02-04T05:05:00;5.00;99.90
46730;DHT22;32476;50.002;11.854;2024-02-04T05:07:26;5.00;99.90
46730;DHT22;32476;50.002;11.854;2024-02-04T05:09:52;5.00;99.90
46730;DHT22;32476;50.002;11.854;2024-02-04T05:12:20;5.00;99.90
46730;DHT22;32476;50.002;11.854;2024-02-04T05:14:46;5.00;99.90
46730;DHT22;32476;50.002;11.854;2024-02-04T05:17:12;5.00;99.90
46730;DHT22;32476;50.002;11.854;2024-02-04T05:19:43;5.00;99.90
46730;DHT22;32476;50.002;11.854;2024-02-04T05:22:09;5.10;99.90
46730;DHT22;32476;50.002;11.854;2024-02-04T05:24:35;5.00;99.90
46730;DHT22;32476;50.002;11.854;2024-02-04T05:27:03;5.10;99.90
46730;DHT22;32476;50.002;11.854;2024-02-04T05:29:31;5.10;99.90
46730;DHT22;32476;50.002;11.854;2024-02-04T05:31:57;5.10;99.90
46730;DHT22;32476;50.002;11.854;2024-02-04T05:34:24;5.10;99.90
46730;DHT22;32476;50.002;11.854;2024-02-04T05:36:50;5.10;99.90
46730;DHT22;32476;50.002;11.854;2024-02-04T05:39:16;5.10;99.90
46730;DHT22;32476;50.002;11.854;2024-02-04T05:41:44;5.10;99.90
46730;DHT22;32476;50.002;11.854;2024-02-04T05:44:10;5.10;99.90
46730;DHT22;32476;50.002;11.854;2024-02-04T05:46:36;5.10;99.90
46730;DHT22;32476;50.002;11.854;2024-02-04T05:49:04;5.10;99.90
46730;DHT22;32476;50.002;11.854;2024-02-04T05:51:38;5.10;99.90
46730;DHT22;32476;50.002;11.854;2024-02-04T05:54:07;5.10;99.90
46730;DHT22;32476;50.002;11.854;2024-02-04T05:56:34;5.10;99.90
46730;DHT22;32476;50.002;11.854;2024-02-04T05:59:00;5.00;99.90
46730;DHT22;32476;50.002;11.854;2024-02-04T06:01:27;5.00;99.90
46730;DHT22;32476;50.002;11.854;2024-02-04T06:03:53;5.00;99.90
46730;DHT22;32476;50.002;11.854;2024-02-04T06:06:19;5.00;99.90
46730;DHT22;32476;50.002;11.854;2024-02-04T06:08:47;5.00;99.90
46730;DHT22;32476;50.002;11.854;2024-02-04T06:11:14;5.00;99.90
46730;DHT22;32476;50.002;11.854;2024-02-04T06:13:41;5.00;99.90
46730;DHT22;32476;50.002;11.854;2024-02-04T06:16:09;5.00;99.90
46730;DHT22;32476;50.002;11.854;2024-02-04T06:18:37;5.00;99.90
46730;DHT22;32476;50.002;11.854;2024-02-04T06:21:07;5.00;99.90
46730;DHT22;32476;50.002;11.854;2024-02-04T06:23:35;5.00;99.90
46730;DHT22;32476;50.002;11.854;2024-02-04T06:26:01;5.00;99.90
46730;DHT22;32476;50.002;11.854;2024-02-04T06:28:27;5.00;99.90
46730;DHT22;32476;50.002;11.854;2024-02-04T06:30:55;4.90;99.90
46730;DHT22;32476;50.002;11.854;2024-02-04T06:33:21;4.90;99.90
46730;DHT22;32476;50.002;11.854;2024-02-04T06:35:48;4.90;99.90
46730;DHT22;32476;50.002;11.854;2024-02-04T06:38:16;4.90;99.90
46730;DHT22;32476;50.002;11.854;2024-02-04T06:40:42;4.90;99.90
46730;DHT22;32476;50.002;11.854;2024-02-04T06:43:08;4.90;99.90
46730;DHT22;32476;50.002;11.854;2024-02-04T06:45:36;4.90;99.90
46730;DHT22;32476;50.002;11.854;2024-02-04T06:48:02;4.90;99.90
46730;DHT22;32476;50.002;11.854;2024-02-04T06:50:28;4.90;99.90
46730;DHT22;32476;50.002;11.854;2024-02-04T06:52:56;4.80;99.90
46730;DHT22;32476;50.002;11.854;2024-02-04T06:55:22;4.90;99.90
46730;DHT22;32476;50.002;11.854;2024-02-04T06:57:47;4.90;99.90
46730;DHT22;32476;50.002;11.854;2024-02-04T07:00:15;4.90;99.90
46730;DHT22;32476;50.002;11.854;2024-02-04T07:02:42;4.80;99.90
46730;DHT22;32476;50.002;11.854;2024-02-04T07:05:08;4.80;99.90
46730;DHT22;32476;50.002;11.854;2024-02-04T07:07:37;4.90;99.90
46730;DHT22;32476;50.002;11.854;2024-02-04T07:10:03;4.80;99.90
46730;DHT22;32476;50.002;11.854;2024-02-04T07:12:30;4.80;99.90
46730;DHT22;32476;50.002;11.854;2024-02-04T07:14:57;4.80;99.90
46730;DHT22;32476;50.002;11.854;2024-02-04T07:17:24;4.80;99.90
46730;DHT22;32476;50.002;11.854;2024-02-04T07:19:50;4.80;99.90
46730;DHT22;32476;50.002;11.854;2024-02-04T07:22:17;4.80;99.90
46730;DHT22;32476;50.002;11.854;2024-02-04T07:24:43;4.80;99.90
46730;DHT22;32476;50.002;11.854;2024-02-04T07:27:09;4.80;99.90
46730;DHT22;32476;50.002;11.854;2024-02-04T07:29:37;4.80;99.90
46730;DHT22;32476;50.002;11.854;2024-02-04T07:32:03;4.80;99.90
46730;DHT22;32476;50.002;11.854;2024-02-04T07:34:29;4.80;99.90
46730;DHT22;32476;50.002;11.854;2024-02-04T07:36:57;4.80;99.90
46730;DHT22;32476;50.002;11.854;2024-02-04T07:39:24;4.80;99.90
46730;DHT22;32476;50.002;11.854;2024-02-04T07:41:49;4.80;99.90
46730;DHT22;32476;50.002;11.854;2024-02-04T07:44:17;4.80;99.90
46730;DHT22;32476;50.002;11.854;2024-02-04T07:46:43;4.80;99.90
46730;DHT22;32476;50.002;11.854;2024-02-04T07:49:09;4.80;99.90
46730;DHT22;32476;50.002;11.854;2024-02-04T07:51:36;4.80;99.90
46730;DHT22;32476;50.002;11.854;2024-02-04T07:54:03;4.70;99.90
46730;DHT22;32476;50.002;11.854;2024-02-04T07:56:29;4.70;99.90
46730;DHT22;32476;50.002;11.854;2024-02-04T07:58:57;4.70;99.90
46730;DHT22;32476;50.002;11.854;2024-02-04T08:01:23;4.70;99.90
46730;DHT22;32476;50.002;11.854;2024-02-04T08:03:49;4.70;99.90
46730;DHT22;32476;50.002;11.854;2024-02-04T08:06:17;4.70;99.90
46730;DHT22;32476;50.002;11.854;2024-02-04T08:08:43;4.70;99.90
46730;DHT22;32476;50.002;11.854;2024-02-04T08:11:10;4.70;99.90
46730;DHT22;32476;50.002;11.854;2024-02-04T08:13:37;4.70;99.90
46730;DHT22;32476;50.002;11.854;2024-02-04T08:16:04;4.80;99.90
46730;DHT22;32476;50.002;11.854;2024-02-04T08:18:30;4.70;99.90
46730;DHT22;32476;50.002;11.854;2024-02-04T08:20:58;4.70;99.90
46730;DHT22;32476;50.002;11.854;2024-02-04T08:23:24;4.70;99.90
46730;DHT22;32476;50.002;11.854;2024-02-04T08:25:49;4.80;99.90
46730;DHT22;32476;50.002;11.854;2024-02-04T08:28:17;4.70;99.90
46730;DHT22;32476;50.002;11.854;2024-02-04T08:30:43;4.80;99.90
46730;DHT22;32476;50.002;11.854;2024-02-04T08:33:09;4.80;99.90
46730;DHT22;32476;50.002;11.854;2024-02-04T08:35:37;4.80;99.90
46730;DHT22;32476;50.002;11.854;2024-02-04T08:38:03;4.80;99.90
46730;DHT22;32476;50.002;11.854;2024-02-04T08:40:29;4.80;99.90
46730;DHT22;32476;50.002;11.854;2024-02-04T08:42:56;4.80;99.90
46730;DHT22;32476;50.002;11.854;2024-02-04T08:45:22;4.90;99.90
46730;DHT22;32476;50.002;11.854;2024-02-04T08:47:48;4.90;99.90
46730;DHT22;32476;50.002;11.854;2024-02-04T08:50:15;4.80;99.90
46730;DHT22;32476;50.002;11.854;2024-02-04T08:52:42;4.90;99.90
46730;DHT22;32476;50.002;11.854;2024-02-04T08:55:09;4.90;99.90
46730;DHT22;32476;50.002;11.854;2024-02-04T08:57:36;4.80;99.90
46730;DHT22;32476;50.002;11.854;2024-02-04T09:00:02;4.90;99.90
46730;DHT22;32476;50.002;11.854;2024-02-04T09:02:29;4.90;99.90
46730;DHT22;32476;50.002;11.854;2024-02-04T09:04:57;5.00;99.90
46730;DHT22;32476;50.002;11.854;2024-02-04T09:07:23;5.00;99.90
46730;DHT22;32476;50.002;11.854;2024-02-04T09:09:48;4.90;99.90
46730;DHT22;32476;50.002;11.854;2024-02-04T09:12:18;5.00;99.90
46730;DHT22;32476;50.002;11.854;2024-02-04T09:14:44;4.90;99.90
46730;DHT22;32476;50.002;11.854;2024-02-04T09:17:10;5.00;99.90
46730;DHT22;32476;50.002;11.854;2024-02-04T09:19:40;5.00;99.90
46730;DHT22;32476;50.002;11.854;2024-02-04T09:22:06;5.00;99.90
46730;DHT22;32476;50.002;11.854;2024-02-04T09:24:32;5.00;99.90
46730;DHT22;32476;50.002;11.854;2024-02-04T09:26:59;5.00;99.90
46730;DHT22;32476;50.002;11.854;2024-02-04T09:29:25;5.10;99.90
46730;DHT22;32476;50.002;11.854;2024-02-04T09:31:51;5.10;99.90
46730;DHT22;32476;50.002;11.854;2024-02-04T09:34:21;5.10;99.90
46730;DHT22;32476;50.002;11.854;2024-02-04T09:36:47;5.10;99.90
46730;DHT22;32476;50.002;11.854;2024-02-04T09:39:13;5.10;99.90
46730;DHT22;32476;50.002;11.854;2024-02-04T09:41:40;5.20;99.90
46730;DHT22;32476;50.002;11.854;2024-02-04T09:44:06;5.20;99.90
46730;DHT22;32476;50.002;11.854;2024-02-04T09:46:33;5.20;99.90
46730;DHT22;32476;50.002;11.854;2024-02-04T09:49:00;5.20;99.90
46730;DHT22;32476;50.002;11.854;2024-02-04T09:51:49;5.20;99.90
46730;DHT22;32476;50.002;11.854;2024-02-04T09:54:18;5.20;99.90
46730;DHT22;32476;50.002;11.854;2024-02-04T09:56:46;5.20;99.90
46730;DHT22;32476;50.002;11.854;2024-02-04T09:59:13;5.20;99.90
46730;DHT22;32476;50.002;11.854;2024-02-04T10:01:41;5.20;99.90
46730;DHT22;32476;50.002;11.854;2024-02-04T10:04:07;5.20;99.90
46730;DHT22;32476;50.002;11.854;2024-02-04T10:06:33;5.20;99.90
46730;DHT22;32476;50.002;11.854;2024-02-04T10:09:01;5.20;99.90
46730;DHT22;32476;50.002;11.854;2024-02-04T10:11:27;5.30;99.90
46730;DHT22;32476;50.002;11.854;2024-02-04T10:13:53;5.30;99.90
46730;DHT22;32476;50.002;11.854;2024-02-04T10:16:20;5.30;99.90
46730;DHT22;32476;50.002;11.854;2024-02-04T10:18:48;5.40;99.90
46730;DHT22;32476;50.002;11.854;2024-02-04T10:21:21;5.40;99.90
46730;DHT22;32476;50.002;11.854;2024-02-04T10:23:50;5.40;99.90
46730;DHT22;32476;50.002;11.854;2024-02-04T10:26:17;5.50;99.90
46730;DHT22;32476;50.002;11.854;2024-02-04T10:28:46;5.50;99.90
46730;DHT22;32476;50.002;11.854;2024-02-04T10:31:15;5.40;99.90
46730;DHT22;32476;50.002;11.854;2024-02-04T10:33:40;5.50;99.90
46730;DHT22;32476;50.002;11.854;2024-02-04T10:36:07;5.50;99.90
46730;DHT22;32476;50.002;11.854;2024-02-04T10:38:35;5.50;99.90
46730;DHT22;32476;50.002;11.854;2024-02-04T10:41:01;5.40;99.90
46730;DHT22;32476;50.002;11.854;2024-02-04T10:43:32;5.40;99.90
46730;DHT22;32476;50.002;11.854;2024-02-04T10:46:17;5.30;99.90
46730;DHT22;32476;50.002;11.854;2024-02-04T10:48:48;5.40;99.90
46730;DHT22;32476;50.002;11.854;2024-02-04T10:51:24;5.30;99.90
46730;DHT22;32476;50.002;11.854;2024-02-04T10:53:54;5.30;99.90
46730;DHT22;32476;50.002;11.854;2024-02-04T10:56:41;5.30;99.90
46730;DHT22;32476;50.002;11.854;2024-02-04T10:59:10;5.30;99.90
46730;DHT22;32476;50.002;11.854;2024-02-04T11:01:40;5.30;99.90
46730;DHT22;32476;50.002;11.854;2024-02-04T11:04:17;5.30;99.90
46730;DHT22;32476;50.002;11.854;2024-02-04T11:06:46;5.30;99.90
46730;DHT22;32476;50.002;11.854;2024-02-04T11:09:12;5.30;99.90
46730;DHT22;32476;50.002;11.854;2024-02-04T11:11:40;5.30;99.90
46730;DHT22;32476;50.002;11.854;2024-02-04T11:14:11;5.30;99.90
46730;DHT22;32476;50.002;11.854;2024-02-04T11:17:08;5.30;99.90
46730;DHT22;32476;50.002;11.854;2024-02-04T11:19:47;5.30;99.90
46730;DHT22;32476;50.002;11.854;2024-02-04T11:28:21;5.20;99.90
46730;DHT22;32476;50.002;11.854;2024-02-04T11:30:49;5.20;99.90
46730;DHT22;32476;50.002;11.854;2024-02-04T11:33:21;5.20;99.90
46730;DHT22;32476;50.002;11.854;2024-02-04T11:36:05;5.20;99.90
46730;DHT22;32476;50.002;11.854;2024-02-04T11:38:36;5.20;99.90
46730;DHT22;32476;50.002;11.854;2024-02-04T11:41:04;5.20;99.90
46730;DHT22;32476;50.002;11.854;2024-02-04T11:43:35;5.30;99.90
46730;DHT22;32476;50.002;11.854;2024-02-04T11:46:05;5.20;99.90
46730;DHT22;32476;50.002;11.854;2024-02-04T11:48:34;5.20;99.90
46730;DHT22;32476;50.002;11.854;2024-02-04T11:51:03;5.20;99.90
46730;DHT22;32476;50.002;11.854;2024-02-04T11:53:30;5.20;99.90
46730;DHT22;32476;50.002;11.854;2024-02-04T11:56:00;5.20;99.90
46730;DHT22;32476;50.002;11.854;2024-02-04T11:58:27;5.20;99.90
46730;DHT22;32476;50.002;11.854;2024-02-04T12:00:56;5.20;99.90
46730;DHT22;32476;50.002;11.854;2024-02-04T12:03:29;5.20;99.90
46730;DHT22;32476;50.002;11.854;2024-02-04T12:05:56;5.20;99.90
46730;DHT22;32476;50.002;11.854;2024-02-04T12:08:27;5.30;99.90
46730;DHT22;32476;50.002;11.854;2024-02-04T12:10:54;5.20;99.90
46730;DHT22;32476;50.002;11.854;2024-02-04T12:13:21;5.30;99.90
46730;DHT22;32476;50.002;11.854;2024-02-04T12:15:48;5.30;99.90
46730;DHT22;32476;50.002;11.854;2024-02-04T12:18:15;5.30;99.90
46730;DHT22;32476;50.002;11.854;2024-02-04T12:20:44;5.30;99.90
46730;DHT22;32476;50.002;11.854;2024-02-04T12:23:13;5.30;99.90
46730;DHT22;32476;50.002;11.854;2024-02-04T12:25:39;5.30;99.90
46730;DHT22;32476;50.002;11.854;2024-02-04T12:28:05;5.30;99.90
46730;DHT22;32476;50.002;11.854;2024-02-04T12:30:33;5.30;99.90
46730;DHT22;32476;50.002;11.854;2024-02-04T12:33:02;5.30;99.90
46730;DHT22;32476;50.002;11.854;2024-02-04T12:35:30;5.30;99.90
46730;DHT22;32476;50.002;11.854;2024-02-04T12:37:59;5.30;99.90
46730;DHT22;32476;50.002;11.854;2024-02-04T12:40:30;5.40;99.90
46730;DHT22;32476;50.002;11.854;2024-02-04T12:43:00;5.40;99.90
46730;DHT22;32476;50.002;11.854;2024-02-04T12:45:28;5.40;99.90
46730;DHT22;32476;50.002;11.854;2024-02-04T12:47:58;5.40;99.90
46730;DHT22;32476;50.002;11.854;2024-02-04T12:50:25;5.40;99.90
46730;DHT22;32476;50.002;11.854;2024-02-04T12:53:05;5.40;99.90
46730;DHT22;32476;50.002;11.854;2024-02-04T12:55:35;5.40;99.90
46730;DHT22;32476;50.002;11.854;2024-02-04T12:58:03;5.40;99.90
46730;DHT22;32476;50.002;11.854;2024-02-04T13:00:37;5.30;99.90
46730;DHT22;32476;50.002;11.854;2024-02-04T13:03:04;5.30;99.90
46730;DHT22;32476;50.002;11.854;2024-02-04T13:05:31;5.30;99.90
46730;DHT22;32476;50.002;11.854;2024-02-04T13:08:00;5.30;99.90
46730;DHT22;32476;50.002;11.854;2024-02-04T13:10:35;5.30;99.90
46730;DHT22;32476;50.002;11.854;2024-02-04T13:13:06;5.30;99.90
46730;DHT22;32476;50.002;11.854;2024-02-04T13:15:39;5.40;99.90
46730;DHT22;32476;50.002;11.854;2024-02-04T13:18:08;5.40;99.90
46730;DHT22;32476;50.002;11.854;2024-02-04T13:20:36;5.40;99.90
46730;DHT22;32476;50.002;11.854;2024-02-04T13:23:02;5.40;99.90
46730;DHT22;32476;50.002;11.854;2024-02-04T13:25:34;5.40;99.90
46730;DHT22;32476;50.002;11.854;2024-02-04T13:28:04;5.50;99.90
46730;DHT22;32476;50.002;11.854;2024-02-04T13:30:32;5.40;99.90
46730;DHT22;32476;50.002;11.854;2024-02-04T13:32:59;5.50;99.90
46730;DHT22;32476;50.002;11.854;2024-02-04T13:35:27;5.50;99.90
46730;DHT22;32476;50.002;11.854;2024-02-04T13:37:54;5.50;99.90
46730;DHT22;32476;50.002;11.854;2024-02-04T13:40:21;5.50;99.90
46730;DHT22;32476;50.002;11.854;2024-02-04T13:42:51;5.50;99.90
46730;DHT22;32476;50.002;11.854;2024-02-04T13:45:18;5.50;99.90
46730;DHT22;32476;50.002;11.854;2024-02-04T13:47:46;5.50;99.90
46730;DHT22;32476;50.002;11.854;2024-02-04T13:50:12;5.50;99.90
46730;DHT22;32476;50.002;11.854;2024-02-04T13:52:40;5.50;99.90
46730;DHT22;32476;50.002;11.854;2024-02-04T13:55:06;5.50;99.90
46730;DHT22;32476;50.002;11.854;2024-02-04T13:57:34;5.50;99.90
46730;DHT22;32476;50.002;11.854;2024-02-04T14:00:04;5.50;99.90
46730;DHT22;32476;50.002;11.854;2024-02-04T14:02:33;5.50;99.90
46730;DHT22;32476;50.002;11.854;2024-02-04T14:04:59;5.50;99.90
46730;DHT22;32476;50.002;11.854;2024-02-04T14:07:27;5.50;99.90
46730;DHT22;32476;50.002;11.854;2024-02-04T14:09:53;5.50;99.90
46730;DHT22;32476;50.002;11.854;2024-02-04T14:12:19;5.50;99.90
46730;DHT22;32476;50.002;11.854;2024-02-04T14:14:46;5.50;99.90
46730;DHT22;32476;50.002;11.854;2024-02-04T14:17:12;5.50;99.90
46730;DHT22;32476;50.002;11.854;2024-02-04T14:19:39;5.50;99.90
46730;DHT22;32476;50.002;11.854;2024-02-04T14:22:06;5.50;99.90
46730;DHT22;32476;50.002;11.854;2024-02-04T14:24:32;5.50;99.90
46730;DHT22;32476;50.002;11.854;2024-02-04T14:26:59;5.50;99.90
46730;DHT22;32476;50.002;11.854;2024-02-04T14:29:26;5.50;99.90
46730;DHT22;32476;50.002;11.854;2024-02-04T14:31:52;5.50;99.90
46730;DHT22;32476;50.002;11.854;2024-02-04T14:34:18;5.50;99.90
46730;DHT22;32476;50.002;11.854;2024-02-04T14:36:46;5.50;99.90
46730;DHT22;32476;50.002;11.854;2024-02-04T14:39:12;5.50;99.90
46730;DHT22;32476;50.002;11.854;2024-02-04T14:41:38;5.50;99.90
46730;DHT22;32476;50.002;11.854;2024-02-04T14:44:05;5.50;99.90
46730;DHT22;32476;50.002;11.854;2024-02-04T14:46:31;5.50;99.90
46730;DHT22;32476;50.002;11.854;2024-02-04T14:48:57;5.50;99.90
46730;DHT22;32476;50.002;11.854;2024-02-04T14:51:26;5.50;99.90
46730;DHT22;32476;50.002;11.854;2024-02-04T14:53:52;5.50;99.90
46730;DHT22;32476;50.002;11.854;2024-02-04T14:56:18;5.50;99.90
46730;DHT22;32476;50.002;11.854;2024-02-04T14:58:45;5.50;99.90
46730;DHT22;32476;50.002;11.854;2024-02-04T15:01:11;5.50;99.90
46730;DHT22;32476;50.002;11.854;2024-02-04T15:03:37;5.50;99.90
46730;DHT22;32476;50.002;11.854;2024-02-04T15:06:04;5.50;99.90
46730;DHT22;32476;50.002;11.854;2024-02-04T15:08:30;5.50;99.90
46730;DHT22;32476;50.002;11.854;2024-02-04T15:10:56;5.50;99.90
46730;DHT22;32476;50.002;11.854;2024-02-04T15:13:24;5.50;99.90
46730;DHT22;32476;50.002;11.854;2024-02-04T15:15:51;5.40;99.90
46730;DHT22;32476;50.002;11.854;2024-02-04T15:18:18;5.50;99.90
46730;DHT22;32476;50.002;11.854;2024-02-04T15:20:46;5.50;99.90
46730;DHT22;32476;50.002;11.854;2024-02-04T15:23:13;5.40;99.90
46730;DHT22;32476;50.002;11.854;2024-02-04T15:25:40;5.40;99.90
46730;DHT22;32476;50.002;11.854;2024-02-04T15:28:11;5.40;99.90
46730;DHT22;32476;50.002;11.854;2024-02-04T15:30:42;5.40;99.90
46730;DHT22;32476;50.002;11.854;2024-02-04T15:33:10;5.40;99.90
46730;DHT22;32476;50.002;11.854;2024-02-04T15:35:36;5.40;99.90
46730;DHT22;32476;50.002;11.854;2024-02-04T15:38:03;5.40;99.90
46730;DHT22;32476;50.002;11.854;2024-02-04T15:40:49;5.40;99.90